sensor_id;sensor_type;location;lat;lon;timestamp;pressure;altitude;pressure_sealevel;temperature;humidity
35848;BME280;22332;51.954;20.118;2022-08-03T00:00:58;100433.19;;;15.79;76.22
35848;BME280;22332;51.954;20.118;2022-08-03T00:04:03;100432.45;;;15.75;76.46
35848;BME280;22332;51.954;20.118;2022-08-03T00:07:09;100432.36;;;15.67;76.40
35848;BME280;22332;51.954;20.118;2022-08-03T00:10:15;100430.45;;;15.58;76.73
35848;BME280;22332;51.954;20.118;2022-08-03T00:13:21;100428.83;;;15.54;76.62
35848;BME280;22332;51.954;20.118;2022-08-03T00:16:26;100429.21;;;15.55;76.70
35848;BME280;22332;51.954;20.118;2022-08-03T00:19:31;100435.40;;;15.61;76.61
35848;BME280;22332;51.954;20.118;2022-08-03T00:22:37;100437.41;;;15.55;76.44
35848;BME280;22332;51.954;20.118;2022-08-03T00:25:42;100440.35;;;15.51;76.87
35848;BME280;22332;51.954;20.118;2022-08-03T00:28:48;100441.42;;;15.50;76.91
35848;BME280;22332;51.954;20.118;2022-08-03T00:31:53;100442.08;;;15.43;76.85
35848;BME280;22332;51.954;20.118;2022-08-03T00:34:59;100441.92;;;15.38;77.16
35848;BME280;22332;51.954;20.118;2022-08-03T00:38:04;100440.85;;;15.41;77.16
35848;BME280;22332;51.954;20.118;2022-08-03T00:41:10;100441.33;;;15.45;77.00
35848;BME280;22332;51.954;20.118;2022-08-03T00:44:15;100445.73;;;15.41;76.86
35848;BME280;22332;51.954;20.118;2022-08-03T00:47:20;100444.58;;;15.32;77.18
35848;BME280;22332;51.954;20.118;2022-08-03T00:50:29;100448.09;;;15.34;77.18
35848;BME280;22332;51.954;20.118;2022-08-03T00:53:35;100444.91;;;15.34;77.05
35848;BME280;22332;51.954;20.118;2022-08-03T00:56:41;100446.91;;;15.32;77.02
35848;BME280;22332;51.954;20.118;2022-08-03T00:59:47;100446.99;;;15.33;76.88
35848;BME280;22332;51.954;20.118;2022-08-03T01:02:53;100446.25;;;15.25;77.06
35848;BME280;22332;51.954;20.118;2022-08-03T01:06:06;100448.27;;;15.16;76.96
35848;BME280;22332;51.954;20.118;2022-08-03T01:09:21;100444.80;;;15.10;77.28
35848;BME280;22332;51.954;20.118;2022-08-03T01:12:36;100437.16;;;15.05;77.40
35848;BME280;22332;51.954;20.118;2022-08-03T01:15:48;100439.21;;;15.06;77.33
35848;BME280;22332;51.954;20.118;2022-08-03T01:19:01;100439.82;;;15.07;77.36
35848;BME280;22332;51.954;20.118;2022-08-03T01:22:27;100439.07;;;15.07;77.29
35848;BME280;22332;51.954;20.118;2022-08-03T01:25:49;100440.80;;;14.98;77.43
35848;BME280;22332;51.954;20.118;2022-08-03T01:29:06;100434.90;;;14.92;77.52
35848;BME280;22332;51.954;20.118;2022-08-03T01:32:18;100433.50;;;14.95;77.46
35848;BME280;22332;51.954;20.118;2022-08-03T01:35:27;100437.81;;;14.93;77.44
35848;BME280;22332;51.954;20.118;2022-08-03T01:38:37;100442.42;;;14.85;77.71
35848;BME280;22332;51.954;20.118;2022-08-03T01:41:49;100437.13;;;14.91;77.70
35848;BME280;22332;51.954;20.118;2022-08-03T01:44:58;100442.15;;;14.86;77.66
35848;BME280;22332;51.954;20.118;2022-08-03T01:48:06;100442.50;;;14.74;77.75
35848;BME280;22332;51.954;20.118;2022-08-03T01:51:15;100444.25;;;14.63;77.88
35848;BME280;22332;51.954;20.118;2022-08-03T01:54:24;100440.84;;;14.55;77.93
35848;BME280;22332;51.954;20.118;2022-08-03T01:57:30;100436.54;;;14.52;78.01
35848;BME280;22332;51.954;20.118;2022-08-03T02:00:38;100437.69;;;14.53;77.99
35848;BME280;22332;51.954;20.118;2022-08-03T02:03:45;100434.36;;;14.61;78.17
35848;BME280;22332;51.954;20.118;2022-08-03T02:06:54;100439.17;;;14.54;77.95
35848;BME280;22332;51.954;20.118;2022-08-03T02:10:01;100431.42;;;14.48;78.18
35848;BME280;22332;51.954;20.118;2022-08-03T02:13:08;100434.30;;;14.56;78.04
35848;BME280;22332;51.954;20.118;2022-08-03T02:16:14;100431.96;;;14.58;77.93
35848;BME280;22332;51.954;20.118;2022-08-03T02:19:23;100428.79;;;14.54;78.26
35848;BME280;22332;51.954;20.118;2022-08-03T02:22:30;100428.19;;;14.57;78.10
35848;BME280;22332;51.954;20.118;2022-08-03T02:25:43;100423.59;;;14.52;78.20
35848;BME280;22332;51.954;20.118;2022-08-03T02:28:52;100427.55;;;14.46;78.48
35848;BME280;22332;51.954;20.118;2022-08-03T02:32:00;100426.09;;;14.42;78.45
35848;BME280;22332;51.954;20.118;2022-08-03T02:35:12;100423.91;;;14.39;78.50
35848;BME280;22332;51.954;20.118;2022-08-03T02:38:22;100422.67;;;14.39;78.81
35848;BME280;22332;51.954;20.118;2022-08-03T02:41:34;100422.69;;;14.37;78.66
35848;BME280;22332;51.954;20.118;2022-08-03T02:44:41;100420.83;;;14.37;78.81
35848;BME280;22332;51.954;20.118;2022-08-03T02:47:54;100422.00;;;14.49;78.68
35848;BME280;22332;51.954;20.118;2022-08-03T02:51:02;100422.04;;;14.47;78.67
35848;BME280;22332;51.954;20.118;2022-08-03T02:54:09;100423.02;;;14.43;78.81
35848;BME280;22332;51.954;20.118;2022-08-03T02:57:15;100425.09;;;14.46;78.90
35848;BME280;22332;51.954;20.118;2022-08-03T03:00:22;100433.36;;;14.55;79.00
35848;BME280;22332;51.954;20.118;2022-08-03T03:03:29;100430.04;;;14.54;78.58
35848;BME280;22332;51.954;20.118;2022-08-03T03:06:36;100435.23;;;14.52;78.87
35848;BME280;22332;51.954;20.118;2022-08-03T03:09:42;100436.44;;;14.54;78.75
35848;BME280;22332;51.954;20.118;2022-08-03T03:12:51;100436.61;;;14.55;78.84
35848;BME280;22332;51.954;20.118;2022-08-03T03:16:01;100438.46;;;14.59;78.89
35848;BME280;22332;51.954;20.118;2022-08-03T03:19:08;100440.21;;;14.60;79.20
35848;BME280;22332;51.954;20.118;2022-08-03T03:22:16;100438.36;;;14.57;78.96
35848;BME280;22332;51.954;20.118;2022-08-03T03:25:22;100439.54;;;14.54;79.01
35848;BME280;22332;51.954;20.118;2022-08-03T03:28:29;100443.38;;;14.62;79.32
35848;BME280;22332;51.954;20.118;2022-08-03T03:31:35;100441.70;;;14.72;79.15
35848;BME280;22332;51.954;20.118;2022-08-03T03:34:41;100439.80;;;14.76;79.33
35848;BME280;22332;51.954;20.118;2022-08-03T03:37:47;100436.58;;;14.80;79.41
35848;BME280;22332;51.954;20.118;2022-08-03T03:40:53;100441.94;;;14.85;79.17
35848;BME280;22332;51.954;20.118;2022-08-03T03:43:59;100439.96;;;14.93;79.37
35848;BME280;22332;51.954;20.118;2022-08-03T03:47:04;100441.73;;;15.01;79.14
35848;BME280;22332;51.954;20.118;2022-08-03T03:50:10;100439.16;;;15.03;79.47
35848;BME280;22332;51.954;20.118;2022-08-03T03:53:16;100439.31;;;15.31;80.92
35848;BME280;22332;51.954;20.118;2022-08-03T03:56:21;100444.52;;;15.78;80.79
35848;BME280;22332;51.954;20.118;2022-08-03T03:59:27;100444.46;;;16.21;80.61
35848;BME280;22332;51.954;20.118;2022-08-03T04:02:33;100446.81;;;16.61;80.39
35848;BME280;22332;51.954;20.118;2022-08-03T04:05:38;100448.83;;;16.99;80.27
35848;BME280;22332;51.954;20.118;2022-08-03T04:09:02;100454.23;;;17.40;79.81
35848;BME280;22332;51.954;20.118;2022-08-03T04:12:39;100455.66;;;17.78;79.56
35848;BME280;22332;51.954;20.118;2022-08-03T04:15:45;100456.50;;;18.05;79.11
35848;BME280;22332;51.954;20.118;2022-08-03T04:18:58;100458.94;;;18.23;78.90
35848;BME280;22332;51.954;20.118;2022-08-03T04:22:06;100462.80;;;18.33;78.16
35848;BME280;22332;51.954;20.118;2022-08-03T04:25:15;100464.64;;;18.54;78.73
35848;BME280;22332;51.954;20.118;2022-08-03T04:28:23;100461.30;;;18.82;78.22
35848;BME280;22332;51.954;20.118;2022-08-03T04:31:30;100464.30;;;19.09;77.89
35848;BME280;22332;51.954;20.118;2022-08-03T04:34:36;100468.85;;;19.30;77.56
35848;BME280;22332;51.954;20.118;2022-08-03T04:37:44;100466.80;;;19.47;77.21
35848;BME280;22332;51.954;20.118;2022-08-03T04:40:52;100466.68;;;19.63;76.65
35848;BME280;22332;51.954;20.118;2022-08-03T04:43:59;100476.52;;;19.86;76.55
35848;BME280;22332;51.954;20.118;2022-08-03T04:47:06;100479.13;;;20.06;76.38
35848;BME280;22332;51.954;20.118;2022-08-03T04:50:11;100479.34;;;20.23;76.13
35848;BME280;22332;51.954;20.118;2022-08-03T04:53:18;100485.28;;;20.37;75.76
35848;BME280;22332;51.954;20.118;2022-08-03T04:56:23;100485.45;;;20.53;75.57
35848;BME280;22332;51.954;20.118;2022-08-03T04:59:28;100481.87;;;20.70;75.31
35848;BME280;22332;51.954;20.118;2022-08-03T05:02:34;100483.27;;;20.86;75.15
35848;BME280;22332;51.954;20.118;2022-08-03T05:05:39;100485.80;;;20.98;74.87
35848;BME280;22332;51.954;20.118;2022-08-03T05:08:45;100488.11;;;21.12;74.59
35848;BME280;22332;51.954;20.118;2022-08-03T05:11:50;100489.45;;;21.19;74.30
35848;BME280;22332;51.954;20.118;2022-08-03T05:14:56;100489.41;;;21.18;74.25
35848;BME280;22332;51.954;20.118;2022-08-03T05:18:02;100491.04;;;21.16;74.47
35848;BME280;22332;51.954;20.118;2022-08-03T05:21:07;100491.91;;;21.21;74.09
35848;BME280;22332;51.954;20.118;2022-08-03T05:24:12;100489.45;;;21.33;74.10
35848;BME280;22332;51.954;20.118;2022-08-03T05:27:18;100488.28;;;21.35;73.85
35848;BME280;22332;51.954;20.118;2022-08-03T05:30:23;100490.67;;;21.38;73.63
35848;BME280;22332;51.954;20.118;2022-08-03T05:33:29;100487.73;;;21.45;73.66
35848;BME280;22332;51.954;20.118;2022-08-03T05:36:34;100490.34;;;21.54;73.45
35848;BME280;22332;51.954;20.118;2022-08-03T05:39:39;100489.02;;;21.71;74.05
35848;BME280;22332;51.954;20.118;2022-08-03T05:42:45;100489.13;;;21.87;74.34
35848;BME280;22332;51.954;20.118;2022-08-03T05:45:51;100493.45;;;21.95;74.25
35848;BME280;22332;51.954;20.118;2022-08-03T05:48:56;100489.70;;;22.03;74.33
35848;BME280;22332;51.954;20.118;2022-08-03T05:52:02;100490.61;;;22.13;74.22
35848;BME280;22332;51.954;20.118;2022-08-03T05:55:09;100494.60;;;22.26;74.37
35848;BME280;22332;51.954;20.118;2022-08-03T05:58:15;100500.60;;;22.42;74.09
35848;BME280;22332;51.954;20.118;2022-08-03T06:01:21;100499.66;;;22.58;73.86
35848;BME280;22332;51.954;20.118;2022-08-03T06:04:26;100504.73;;;22.64;73.11
35848;BME280;22332;51.954;20.118;2022-08-03T06:07:31;100508.05;;;22.58;72.87
35848;BME280;22332;51.954;20.118;2022-08-03T06:10:37;100509.96;;;22.44;72.94
35848;BME280;22332;51.954;20.118;2022-08-03T06:13:43;100510.66;;;22.26;73.03
35848;BME280;22332;51.954;20.118;2022-08-03T06:16:48;100514.09;;;22.11;73.75
35848;BME280;22332;51.954;20.118;2022-08-03T06:19:54;100515.54;;;21.99;73.95
35848;BME280;22332;51.954;20.118;2022-08-03T06:22:59;100517.13;;;21.88;74.24
35848;BME280;22332;51.954;20.118;2022-08-03T06:26:05;100518.17;;;21.82;73.91
35848;BME280;22332;51.954;20.118;2022-08-03T06:29:10;100518.54;;;21.78;73.82
35848;BME280;22332;51.954;20.118;2022-08-03T06:32:15;100517.60;;;21.81;74.25
35848;BME280;22332;51.954;20.118;2022-08-03T06:35:21;100521.80;;;21.89;73.78
35848;BME280;22332;51.954;20.118;2022-08-03T06:38:27;100522.63;;;22.00;73.59
35848;BME280;22332;51.954;20.118;2022-08-03T06:41:32;100519.91;;;22.12;73.45
35848;BME280;22332;51.954;20.118;2022-08-03T06:44:37;100519.22;;;22.29;73.25
35848;BME280;22332;51.954;20.118;2022-08-03T06:47:43;100522.28;;;22.45;72.93
35848;BME280;22332;51.954;20.118;2022-08-03T06:50:48;100520.85;;;22.62;72.75
35848;BME280;22332;51.954;20.118;2022-08-03T06:53:53;100515.36;;;22.81;72.68
35848;BME280;22332;51.954;20.118;2022-08-03T06:56:59;100516.40;;;23.00;72.58
35848;BME280;22332;51.954;20.118;2022-08-03T07:00:06;100519.33;;;23.18;72.46
35848;BME280;22332;51.954;20.118;2022-08-03T07:03:12;100517.95;;;23.38;72.06
35848;BME280;22332;51.954;20.118;2022-08-03T07:06:18;100515.69;;;23.66;71.78
35848;BME280;22332;51.954;20.118;2022-08-03T07:09:23;100517.50;;;23.97;71.14
35848;BME280;22332;51.954;20.118;2022-08-03T07:12:30;100521.12;;;24.23;71.05
35848;BME280;22332;51.954;20.118;2022-08-03T07:15:37;100520.58;;;24.49;70.56
35848;BME280;22332;51.954;20.118;2022-08-03T07:18:43;100520.73;;;24.70;70.13
35848;BME280;22332;51.954;20.118;2022-08-03T07:21:48;100520.30;;;24.86;69.64
35848;BME280;22332;51.954;20.118;2022-08-03T07:24:54;100522.03;;;24.99;69.23
35848;BME280;22332;51.954;20.118;2022-08-03T07:27:59;100519.56;;;25.03;68.56
35848;BME280;22332;51.954;20.118;2022-08-03T07:31:04;100520.30;;;25.05;68.65
35848;BME280;22332;51.954;20.118;2022-08-03T07:34:11;100517.44;;;25.04;68.41
35848;BME280;22332;51.954;20.118;2022-08-03T07:37:16;100518.86;;;25.04;67.99
35848;BME280;22332;51.954;20.118;2022-08-03T07:40:22;100515.30;;;25.03;67.67
35848;BME280;22332;51.954;20.118;2022-08-03T07:43:27;100514.57;;;24.97;67.30
35848;BME280;22332;51.954;20.118;2022-08-03T07:46:33;100514.38;;;24.90;67.37
35848;BME280;22332;51.954;20.118;2022-08-03T07:49:41;100514.77;;;24.80;67.32
35848;BME280;22332;51.954;20.118;2022-08-03T07:52:47;100516.26;;;24.69;67.43
35848;BME280;22332;51.954;20.118;2022-08-03T07:55:52;100519.25;;;24.57;67.52
35848;BME280;22332;51.954;20.118;2022-08-03T07:58:58;100522.61;;;24.45;67.53
35848;BME280;22332;51.954;20.118;2022-08-03T08:02:03;100520.80;;;24.32;67.14
35848;BME280;22332;51.954;20.118;2022-08-03T08:05:10;100523.91;;;24.21;67.13
35848;BME280;22332;51.954;20.118;2022-08-03T08:08:16;100523.91;;;24.14;67.46
35848;BME280;22332;51.954;20.118;2022-08-03T08:11:21;100524.44;;;24.08;67.70
35848;BME280;22332;51.954;20.118;2022-08-03T08:14:26;100527.05;;;24.04;68.38
35848;BME280;22332;51.954;20.118;2022-08-03T08:17:41;100526.48;;;23.98;68.45
35848;BME280;22332;51.954;20.118;2022-08-03T08:20:47;100531.41;;;23.90;68.36
35848;BME280;22332;51.954;20.118;2022-08-03T08:23:53;100535.00;;;23.88;68.37
35848;BME280;22332;51.954;20.118;2022-08-03T08:26:59;100537.36;;;23.86;67.27
35848;BME280;22332;51.954;20.118;2022-08-03T08:30:07;100536.41;;;23.92;66.93
35848;BME280;22332;51.954;20.118;2022-08-03T08:33:12;100532.59;;;23.97;66.43
35848;BME280;22332;51.954;20.118;2022-08-03T08:36:18;100533.15;;;23.94;65.30
35848;BME280;22332;51.954;20.118;2022-08-03T08:39:23;100533.52;;;23.92;65.87
35848;BME280;22332;51.954;20.118;2022-08-03T08:42:29;100530.36;;;23.96;65.77
35848;BME280;22332;51.954;20.118;2022-08-03T08:45:35;100529.17;;;24.03;65.34
35848;BME280;22332;51.954;20.118;2022-08-03T08:48:43;100527.81;;;24.12;65.79
35848;BME280;22332;51.954;20.118;2022-08-03T08:51:50;100530.17;;;24.18;65.53
35848;BME280;22332;51.954;20.118;2022-08-03T08:54:59;100529.98;;;24.23;65.29
35848;BME280;22332;51.954;20.118;2022-08-03T08:58:09;100532.06;;;24.33;65.19
35848;BME280;22332;51.954;20.118;2022-08-03T09:01:18;100533.68;;;24.40;64.81
35848;BME280;22332;51.954;20.118;2022-08-03T09:04:23;100529.80;;;24.37;64.81
35848;BME280;22332;51.954;20.118;2022-08-03T09:07:29;100528.73;;;24.36;64.56
35848;BME280;22332;51.954;20.118;2022-08-03T09:10:35;100529.74;;;24.34;63.89
35848;BME280;22332;51.954;20.118;2022-08-03T09:13:40;100526.82;;;24.36;64.08
35848;BME280;22332;51.954;20.118;2022-08-03T09:16:59;100527.77;;;24.42;64.09
35848;BME280;22332;51.954;20.118;2022-08-03T09:20:07;100523.39;;;24.46;63.65
35848;BME280;22332;51.954;20.118;2022-08-03T09:23:13;100523.17;;;24.48;63.26
35848;BME280;22332;51.954;20.118;2022-08-03T09:26:24;100522.44;;;24.51;62.91
35848;BME280;22332;51.954;20.118;2022-08-03T09:29:33;100519.42;;;24.55;63.05
35848;BME280;22332;51.954;20.118;2022-08-03T09:32:38;100522.38;;;24.61;62.99
35848;BME280;22332;51.954;20.118;2022-08-03T09:35:45;100519.63;;;24.66;62.78
35848;BME280;22332;51.954;20.118;2022-08-03T09:39:01;100513.77;;;24.69;62.33
35848;BME280;22332;51.954;20.118;2022-08-03T09:42:11;100514.23;;;24.72;62.09
35848;BME280;22332;51.954;20.118;2022-08-03T09:45:27;100512.60;;;24.80;62.55
35848;BME280;22332;51.954;20.118;2022-08-03T09:48:33;100510.63;;;24.88;62.29
35848;BME280;22332;51.954;20.118;2022-08-03T09:51:39;100510.18;;;24.95;61.89
35848;BME280;22332;51.954;20.118;2022-08-03T09:54:51;100508.00;;;25.01;62.06
35848;BME280;22332;51.954;20.118;2022-08-03T09:58:05;100507.09;;;25.11;61.86
35848;BME280;22332;51.954;20.118;2022-08-03T10:01:12;100507.36;;;25.19;61.32
35848;BME280;22332;51.954;20.118;2022-08-03T10:04:17;100503.74;;;25.21;61.10
35848;BME280;22332;51.954;20.118;2022-08-03T10:07:23;100504.96;;;25.24;60.85
35848;BME280;22332;51.954;20.118;2022-08-03T10:10:42;100502.08;;;25.27;60.51
35848;BME280;22332;51.954;20.118;2022-08-03T10:13:47;100497.28;;;25.34;60.54
35848;BME280;22332;51.954;20.118;2022-08-03T10:16:53;100497.48;;;25.41;60.73
35848;BME280;22332;51.954;20.118;2022-08-03T10:19:58;100502.85;;;25.49;60.57
35848;BME280;22332;51.954;20.118;2022-08-03T10:23:05;100503.16;;;25.63;60.05
35848;BME280;22332;51.954;20.118;2022-08-03T10:26:15;100501.57;;;25.79;59.76
35848;BME280;22332;51.954;20.118;2022-08-03T10:29:24;100500.70;;;25.95;60.22
35848;BME280;22332;51.954;20.118;2022-08-03T10:32:40;100499.83;;;26.05;59.73
35848;BME280;22332;51.954;20.118;2022-08-03T10:35:49;100503.13;;;26.17;60.06
35848;BME280;22332;51.954;20.118;2022-08-03T10:38:57;100506.14;;;26.29;59.46
35848;BME280;22332;51.954;20.118;2022-08-03T10:42:04;100504.92;;;26.32;58.91
35848;BME280;22332;51.954;20.118;2022-08-03T10:45:15;100502.96;;;26.25;59.12
35848;BME280;22332;51.954;20.118;2022-08-03T10:48:22;100501.87;;;26.29;58.84
35848;BME280;22332;51.954;20.118;2022-08-03T10:51:29;100500.73;;;26.22;58.50
35848;BME280;22332;51.954;20.118;2022-08-03T10:54:43;100495.45;;;26.23;58.71
35848;BME280;22332;51.954;20.118;2022-08-03T10:58:07;100496.37;;;26.31;58.76
35848;BME280;22332;51.954;20.118;2022-08-03T11:01:12;100494.44;;;26.42;58.12
35848;BME280;22332;51.954;20.118;2022-08-03T11:04:19;100491.99;;;26.51;57.87
35848;BME280;22332;51.954;20.118;2022-08-03T11:07:27;100489.39;;;26.57;56.57
35848;BME280;22332;51.954;20.118;2022-08-03T11:10:32;100485.02;;;26.56;57.67
35848;BME280;22332;51.954;20.118;2022-08-03T11:13:38;100482.94;;;26.73;57.60
35848;BME280;22332;51.954;20.118;2022-08-03T11:17:08;100480.64;;;26.95;57.40
35848;BME280;22332;51.954;20.118;2022-08-03T11:20:13;100482.55;;;27.08;57.28
35848;BME280;22332;51.954;20.118;2022-08-03T11:23:38;100483.15;;;27.10;57.05
35848;BME280;22332;51.954;20.118;2022-08-03T11:27:17;100480.73;;;27.13;56.90
35848;BME280;22332;51.954;20.118;2022-08-03T11:30:24;100476.18;;;27.03;56.43
35848;BME280;22332;51.954;20.118;2022-08-03T11:33:32;100475.58;;;27.02;56.73
35848;BME280;22332;51.954;20.118;2022-08-03T11:40:33;100469.41;;;27.09;56.92
35848;BME280;22332;51.954;20.118;2022-08-03T11:43:45;100464.91;;;27.20;56.70
35848;BME280;22332;51.954;20.118;2022-08-03T11:46:51;100472.71;;;27.18;56.44
35848;BME280;22332;51.954;20.118;2022-08-03T11:49:58;100466.01;;;27.15;55.88
35848;BME280;22332;51.954;20.118;2022-08-03T11:53:05;100462.23;;;27.16;55.72
35848;BME280;22332;51.954;20.118;2022-08-03T11:56:11;100462.83;;;27.20;55.74
35848;BME280;22332;51.954;20.118;2022-08-03T11:59:17;100464.20;;;27.22;55.60
35848;BME280;22332;51.954;20.118;2022-08-03T12:02:22;100459.09;;;27.14;54.96
35848;BME280;22332;51.954;20.118;2022-08-03T12:05:38;100457.03;;;27.11;55.12
35848;BME280;22332;51.954;20.118;2022-08-03T12:08:45;100457.96;;;27.16;55.44
35848;BME280;22332;51.954;20.118;2022-08-03T12:11:51;100453.42;;;27.23;55.12
35848;BME280;22332;51.954;20.118;2022-08-03T12:14:56;100451.97;;;27.24;55.06
35848;BME280;22332;51.954;20.118;2022-08-03T12:18:03;100449.52;;;27.21;54.80
35848;BME280;22332;51.954;20.118;2022-08-03T12:21:16;100446.45;;;27.25;55.43
35848;BME280;22332;51.954;20.118;2022-08-03T12:24:21;100448.40;;;27.33;55.18
35848;BME280;22332;51.954;20.118;2022-08-03T12:27:27;100446.54;;;27.34;54.61
35848;BME280;22332;51.954;20.118;2022-08-03T12:30:33;100444.98;;;27.39;54.71
35848;BME280;22332;51.954;20.118;2022-08-03T12:33:59;100443.92;;;27.39;53.36
35848;BME280;22332;51.954;20.118;2022-08-03T12:37:07;100442.77;;;27.40;54.00
35848;BME280;22332;51.954;20.118;2022-08-03T12:40:13;100436.73;;;27.46;54.33
35848;BME280;22332;51.954;20.118;2022-08-03T12:43:19;100432.52;;;27.54;54.24
35848;BME280;22332;51.954;20.118;2022-08-03T12:46:30;100425.73;;;27.55;53.87
35848;BME280;22332;51.954;20.118;2022-08-03T12:49:46;100425.05;;;27.51;54.02
35848;BME280;22332;51.954;20.118;2022-08-03T12:52:52;100423.10;;;27.54;54.02
35848;BME280;22332;51.954;20.118;2022-08-03T12:56:03;100418.63;;;27.63;53.87
35848;BME280;22332;51.954;20.118;2022-08-03T12:59:29;100415.90;;;27.67;53.71
35848;BME280;22332;51.954;20.118;2022-08-03T13:02:34;100414.65;;;27.60;53.98
35848;BME280;22332;51.954;20.118;2022-08-03T13:05:44;100408.09;;;27.56;54.19
35848;BME280;22332;51.954;20.118;2022-08-03T13:09:02;100405.31;;;27.58;53.68
35848;BME280;22332;51.954;20.118;2022-08-03T13:12:10;100408.00;;;27.44;53.56
35848;BME280;22332;51.954;20.118;2022-08-03T13:15:16;100412.25;;;27.34;54.46
35848;BME280;22332;51.954;20.118;2022-08-03T13:18:21;100408.98;;;27.31;54.41
35848;BME280;22332;51.954;20.118;2022-08-03T13:21:27;100409.98;;;27.31;53.84
35848;BME280;22332;51.954;20.118;2022-08-03T13:24:33;100404.05;;;27.36;54.26
35848;BME280;22332;51.954;20.118;2022-08-03T13:27:38;100402.63;;;27.44;53.92
35848;BME280;22332;51.954;20.118;2022-08-03T13:30:44;100399.92;;;27.50;53.27
35848;BME280;22332;51.954;20.118;2022-08-03T13:33:49;100401.19;;;27.50;53.38
35848;BME280;22332;51.954;20.118;2022-08-03T13:36:54;100399.89;;;27.52;53.58
35848;BME280;22332;51.954;20.118;2022-08-03T13:40:00;100395.50;;;27.58;53.43
35848;BME280;22332;51.954;20.118;2022-08-03T13:43:06;100393.22;;;27.61;53.36
35848;BME280;22332;51.954;20.118;2022-08-03T13:46:12;100392.66;;;27.61;52.77
35848;BME280;22332;51.954;20.118;2022-08-03T13:49:17;100391.52;;;27.61;52.61
35848;BME280;22332;51.954;20.118;2022-08-03T13:52:22;100387.35;;;27.60;52.56
35848;BME280;22332;51.954;20.118;2022-08-03T13:55:28;100387.33;;;27.56;52.64
35848;BME280;22332;51.954;20.118;2022-08-03T13:58:33;100385.21;;;27.52;52.05
35848;BME280;22332;51.954;20.118;2022-08-03T14:01:39;100379.75;;;27.48;52.31
35848;BME280;22332;51.954;20.118;2022-08-03T14:04:44;100383.31;;;27.42;51.98
35848;BME280;22332;51.954;20.118;2022-08-03T14:07:49;100380.17;;;27.45;52.31
35848;BME280;22332;51.954;20.118;2022-08-03T14:10:55;100380.02;;;27.48;52.70
35848;BME280;22332;51.954;20.118;2022-08-03T14:14:00;100380.90;;;27.48;52.45
35848;BME280;22332;51.954;20.118;2022-08-03T14:17:05;100379.30;;;27.40;52.42
35848;BME280;22332;51.954;20.118;2022-08-03T14:20:12;100380.26;;;27.36;52.93
35848;BME280;22332;51.954;20.118;2022-08-03T14:23:19;100372.10;;;27.45;53.17
35848;BME280;22332;51.954;20.118;2022-08-03T14:26:24;100373.77;;;27.55;52.71
35848;BME280;22332;51.954;20.118;2022-08-03T14:29:30;100372.20;;;27.65;52.39
35848;BME280;22332;51.954;20.118;2022-08-03T14:32:35;100371.15;;;27.74;52.46
35848;BME280;22332;51.954;20.118;2022-08-03T14:35:41;100364.98;;;27.86;52.50
35848;BME280;22332;51.954;20.118;2022-08-03T14:38:46;100366.75;;;27.92;51.99
35848;BME280;22332;51.954;20.118;2022-08-03T14:41:51;100360.83;;;27.93;51.85
35848;BME280;22332;51.954;20.118;2022-08-03T14:44:57;100362.61;;;27.97;51.84
35848;BME280;22332;51.954;20.118;2022-08-03T14:48:02;100362.83;;;27.98;51.99
35848;BME280;22332;51.954;20.118;2022-08-03T14:51:08;100360.23;;;27.97;52.05
35848;BME280;22332;51.954;20.118;2022-08-03T14:54:13;100362.45;;;27.97;52.08
35848;BME280;22332;51.954;20.118;2022-08-03T14:57:18;100363.64;;;27.95;51.79
35848;BME280;22332;51.954;20.118;2022-08-03T15:00:24;100361.09;;;27.94;51.81
35848;BME280;22332;51.954;20.118;2022-08-03T15:03:29;100360.51;;;27.95;51.58
35848;BME280;22332;51.954;20.118;2022-08-03T15:06:34;100358.04;;;27.96;51.38
35848;BME280;22332;51.954;20.118;2022-08-03T15:09:39;100353.76;;;27.95;51.28
35848;BME280;22332;51.954;20.118;2022-08-03T15:12:45;100352.98;;;27.91;51.30
35848;BME280;22332;51.954;20.118;2022-08-03T15:15:50;100351.52;;;27.89;51.52
35848;BME280;22332;51.954;20.118;2022-08-03T15:18:56;100348.40;;;27.83;51.00
35848;BME280;22332;51.954;20.118;2022-08-03T15:22:01;100342.80;;;27.75;51.14
35848;BME280;22332;51.954;20.118;2022-08-03T15:25:08;100339.65;;;27.70;51.02
35848;BME280;22332;51.954;20.118;2022-08-03T15:28:14;100336.98;;;27.64;51.20
35848;BME280;22332;51.954;20.118;2022-08-03T15:31:22;100338.98;;;27.59;51.10
35848;BME280;22332;51.954;20.118;2022-08-03T15:34:28;100339.13;;;27.56;51.23
35848;BME280;22332;51.954;20.118;2022-08-03T15:37:33;100338.29;;;27.52;51.39
35848;BME280;22332;51.954;20.118;2022-08-03T15:40:38;100337.10;;;27.47;51.15
35848;BME280;22332;51.954;20.118;2022-08-03T15:43:44;100334.48;;;27.39;51.34
35848;BME280;22332;51.954;20.118;2022-08-03T15:46:52;100335.36;;;27.34;51.22
35848;BME280;22332;51.954;20.118;2022-08-03T15:49:57;100333.52;;;27.29;51.09
35848;BME280;22332;51.954;20.118;2022-08-03T15:53:03;100328.25;;;27.24;50.99
35848;BME280;22332;51.954;20.118;2022-08-03T15:56:08;100328.91;;;27.19;51.21
35848;BME280;22332;51.954;20.118;2022-08-03T15:59:14;100325.00;;;27.15;51.20
35848;BME280;22332;51.954;20.118;2022-08-03T16:02:20;100319.76;;;27.12;51.25
35848;BME280;22332;51.954;20.118;2022-08-03T16:05:25;100322.39;;;27.13;51.32
35848;BME280;22332;51.954;20.118;2022-08-03T16:08:31;100318.32;;;27.11;50.89
35848;BME280;22332;51.954;20.118;2022-08-03T16:11:37;100317.38;;;27.09;51.13